Airfield :
LOGIN :

Register | Disclaimer

   EN    FR    IT 

 










Legend :    VFR   Marginal VFR   IFR   Intensive IFR   Very Intensive IFR
Visi :
Ceiling :
>= 8 km
>= 3000ft
5 to 8 km
1000 to 3000 ft
1500m to 5 km
500 to 1000 ft
800 to 1500m
200 to 500 ft
< 800m
< 200 ft
Symbols :   Thunderstorms  Fog  Heavy snow  Heavy precipitations  Wind > 20 kt
SIGMETs :     Misc.  Thunderstorms  Icing  Turbulence  Mountain Waves  Volcanic Ashes







- Airport Elevation : 326 ft
- IATA code : LCG
- Download approach charts


LECO - A Coruna

CURRENT METAR :
  • 180500Z 15005KT 110V170 9999 -RA FEW030 14/13 Q1010 TEMPO 3000 RA

EXPIRED METARs :
  • 180430Z 00000KT 9999 FEW030 14/14 Q1010 TEMPO 2500 RA
  • 180400Z VRB01KT 3500 BR -RA FEW030 14/14 Q1010 TEMPO 2500 RA
  • 180330Z 15003KT 4000 BR -RA SCT030 14/14 Q1010 TEMPO 2500 RA
  • 180300Z AUTO VRB02KT 3500 -RA BR NSC 15/14 Q1010
  • 180230Z AUTO VRB02KT 4900 -RA BR NSC 15/14 Q1010

TAF TAF LECO
Valid from the 18 at 03:00 until the 19 at 03:00 UTC


180200Z 1803/1903 VRB03KT 9999 BKN020 TX17/1814Z TN12/1804Z
TEMPO 1804/1809 RA
PROB30
TEMPO 1804/1809 3000 RA BKN014
BECMG 1810/1812 19010KT
PROB40
TEMPO 1812/1818 27012KT 3000 RA BKN012
No reported NOTAMs for that airfield.



MET'MAP, your aeronautical weather chart ! - Copyright ORBIFLY December 2007 - Disclaimer

ORBIFLY MET'MAP TEAM :

Programming & Development : Alexandra Zaïnal
Concept & Development : Baudouin d'Aumeries
Co-Development & Prog : Marc-Olivier Méhu
Technical & hardware support : Manuel Goepfert

Contact : metmap@orbifly.com




SOURCES & CREDITS :

   NOAA